sensor_id;sensor_type;location;lat;lon;timestamp;temperature;humidity
16867;DHT22;8550;52.596;13.320;2024-01-15T00:03:59;2.60;99.90
16867;DHT22;8550;52.596;13.320;2024-01-15T00:09:03;2.50;99.90
16867;DHT22;8550;52.596;13.320;2024-01-15T00:14:06;2.50;99.90
16867;DHT22;8550;52.596;13.320;2024-01-15T00:19:08;2.50;99.90
16867;DHT22;8550;52.596;13.320;2024-01-15T00:24:11;2.50;99.90
16867;DHT22;8550;52.596;13.320;2024-01-15T00:29:13;2.50;99.90
16867;DHT22;8550;52.596;13.320;2024-01-15T00:34:15;2.50;99.90
16867;DHT22;8550;52.596;13.320;2024-01-15T00:39:19;2.50;99.90
16867;DHT22;8550;52.596;13.320;2024-01-15T00:44:21;2.50;99.90
16867;DHT22;8550;52.596;13.320;2024-01-15T00:49:23;2.50;99.90
16867;DHT22;8550;52.596;13.320;2024-01-15T00:54:26;2.50;99.90
16867;DHT22;8550;52.596;13.320;2024-01-15T00:59:28;2.50;99.90
16867;DHT22;8550;52.596;13.320;2024-01-15T01:04:30;2.40;99.90
16867;DHT22;8550;52.596;13.320;2024-01-15T01:09:33;2.40;99.90
16867;DHT22;8550;52.596;13.320;2024-01-15T01:14:35;2.20;99.90
16867;DHT22;8550;52.596;13.320;2024-01-15T01:19:37;2.10;99.90
16867;DHT22;8550;52.596;13.320;2024-01-15T01:24:40;2.10;99.90
16867;DHT22;8550;52.596;13.320;2024-01-15T01:29:42;2.10;99.90
16867;DHT22;8550;52.596;13.320;2024-01-15T01:34:44;2.10;99.90
16867;DHT22;8550;52.596;13.320;2024-01-15T01:39:48;2.10;99.90
16867;DHT22;8550;52.596;13.320;2024-01-15T01:44:50;2.10;99.90
16867;DHT22;8550;52.596;13.320;2024-01-15T01:49:52;2.20;99.90
16867;DHT22;8550;52.596;13.320;2024-01-15T01:54:56;2.10;99.90
16867;DHT22;8550;52.596;13.320;2024-01-15T01:59:58;2.10;99.90
16867;DHT22;8550;52.596;13.320;2024-01-15T02:05:00;2.10;99.90
16867;DHT22;8550;52.596;13.320;2024-01-15T02:10:04;2.10;99.90
16867;DHT22;8550;52.596;13.320;2024-01-15T02:15:07;2.00;99.90
16867;DHT22;8550;52.596;13.320;2024-01-15T02:20:09;2.10;99.90
16867;DHT22;8550;52.596;13.320;2024-01-15T02:25:13;2.00;99.90
16867;DHT22;8550;52.596;13.320;2024-01-15T02:30:15;2.00;99.90
16867;DHT22;8550;52.596;13.320;2024-01-15T02:35:18;2.00;99.90
16867;DHT22;8550;52.596;13.320;2024-01-15T02:40:21;2.00;99.90
16867;DHT22;8550;52.596;13.320;2024-01-15T02:45:23;1.90;99.90
16867;DHT22;8550;52.596;13.320;2024-01-15T02:50:25;2.00;99.90
16867;DHT22;8550;52.596;13.320;2024-01-15T02:55:29;2.00;99.90
16867;DHT22;8550;52.596;13.320;2024-01-15T03:00:31;2.10;99.90
16867;DHT22;8550;52.596;13.320;2024-01-15T03:05:33;2.10;99.90
16867;DHT22;8550;52.596;13.320;2024-01-15T03:10:36;2.20;99.90
16867;DHT22;8550;52.596;13.320;2024-01-15T03:15:38;2.20;99.90
16867;DHT22;8550;52.596;13.320;2024-01-15T03:20:40;2.20;99.90
16867;DHT22;8550;52.596;13.320;2024-01-15T03:25:43;2.30;99.90
16867;DHT22;8550;52.596;13.320;2024-01-15T03:30:45;2.30;99.90
16867;DHT22;8550;52.596;13.320;2024-01-15T03:35:47;2.40;99.90
16867;DHT22;8550;52.596;13.320;2024-01-15T03:40:50;2.30;99.90
16867;DHT22;8550;52.596;13.320;2024-01-15T03:45:52;2.30;99.90
16867;DHT22;8550;52.596;13.320;2024-01-15T03:50:54;2.30;99.90
16867;DHT22;8550;52.596;13.320;2024-01-15T03:55:57;2.30;99.90
16867;DHT22;8550;52.596;13.320;2024-01-15T04:00:59;2.40;99.90
16867;DHT22;8550;52.596;13.320;2024-01-15T04:06:01;2.40;99.90
16867;DHT22;8550;52.596;13.320;2024-01-15T04:11:04;2.50;99.90
16867;DHT22;8550;52.596;13.320;2024-01-15T04:16:06;2.50;99.90
16867;DHT22;8550;52.596;13.320;2024-01-15T04:21:08;2.50;99.90
16867;DHT22;8550;52.596;13.320;2024-01-15T04:26:12;2.50;99.90
16867;DHT22;8550;52.596;13.320;2024-01-15T04:31:22;2.60;99.90
16867;DHT22;8550;52.596;13.320;2024-01-15T04:36:24;2.60;99.90
16867;DHT22;8550;52.596;13.320;2024-01-15T04:41:27;2.60;99.90
16867;DHT22;8550;52.596;13.320;2024-01-15T04:46:29;2.50;99.90
16867;DHT22;8550;52.596;13.320;2024-01-15T04:51:31;2.60;99.90
16867;DHT22;8550;52.596;13.320;2024-01-15T04:56:34;2.60;99.90
16867;DHT22;8550;52.596;13.320;2024-01-15T05:01:36;2.70;99.90
16867;DHT22;8550;52.596;13.320;2024-01-15T05:06:38;2.70;99.90
16867;DHT22;8550;52.596;13.320;2024-01-15T05:11:42;2.70;99.90
16867;DHT22;8550;52.596;13.320;2024-01-15T05:16:47;2.70;99.90
16867;DHT22;8550;52.596;13.320;2024-01-15T05:21:49;2.70;99.90
16867;DHT22;8550;52.596;13.320;2024-01-15T05:26:52;2.70;99.90
16867;DHT22;8550;52.596;13.320;2024-01-15T05:31:54;2.60;99.90
16867;DHT22;8550;52.596;13.320;2024-01-15T05:36:56;2.50;99.90
16867;DHT22;8550;52.596;13.320;2024-01-15T05:41:59;2.50;99.90
16867;DHT22;8550;52.596;13.320;2024-01-15T05:47:01;2.80;99.90
16867;DHT22;8550;52.596;13.320;2024-01-15T05:52:04;2.80;99.90
16867;DHT22;8550;52.596;13.320;2024-01-15T05:57:08;2.80;99.90
16867;DHT22;8550;52.596;13.320;2024-01-15T06:02:09;2.80;99.90
16867;DHT22;8550;52.596;13.320;2024-01-15T06:07:11;2.80;99.90
16867;DHT22;8550;52.596;13.320;2024-01-15T06:12:15;2.80;99.90
16867;DHT22;8550;52.596;13.320;2024-01-15T06:17:16;2.80;99.90
16867;DHT22;8550;52.596;13.320;2024-01-15T06:22:18;2.80;99.90
16867;DHT22;8550;52.596;13.320;2024-01-15T06:27:22;2.80;99.90
16867;DHT22;8550;52.596;13.320;2024-01-15T06:32:24;2.80;99.90
16867;DHT22;8550;52.596;13.320;2024-01-15T06:37:25;2.90;99.90
16867;DHT22;8550;52.596;13.320;2024-01-15T06:42:29;2.90;99.90
16867;DHT22;8550;52.596;13.320;2024-01-15T06:47:31;2.80;99.90
16867;DHT22;8550;52.596;13.320;2024-01-15T06:52:33;2.80;99.90
16867;DHT22;8550;52.596;13.320;2024-01-15T06:57:36;2.80;99.90
16867;DHT22;8550;52.596;13.320;2024-01-15T07:02:38;2.70;99.90
16867;DHT22;8550;52.596;13.320;2024-01-15T07:07:40;2.80;99.90
16867;DHT22;8550;52.596;13.320;2024-01-15T07:12:43;2.80;99.90
16867;DHT22;8550;52.596;13.320;2024-01-15T07:17:45;2.70;99.90
16867;DHT22;8550;52.596;13.320;2024-01-15T07:22:47;2.70;99.90
16867;DHT22;8550;52.596;13.320;2024-01-15T07:27:50;2.60;99.90
16867;DHT22;8550;52.596;13.320;2024-01-15T07:32:54;2.50;99.90
16867;DHT22;8550;52.596;13.320;2024-01-15T07:37:56;2.70;99.90
16867;DHT22;8550;52.596;13.320;2024-01-15T07:42:59;2.70;99.90
16867;DHT22;8550;52.596;13.320;2024-01-15T07:48:01;2.80;99.90
16867;DHT22;8550;52.596;13.320;2024-01-15T07:53:04;2.90;99.90
16867;DHT22;8550;52.596;13.320;2024-01-15T07:58:07;2.90;99.90
16867;DHT22;8550;52.596;13.320;2024-01-15T08:03:10;2.90;99.90
16867;DHT22;8550;52.596;13.320;2024-01-15T08:08:12;3.00;99.90
16867;DHT22;8550;52.596;13.320;2024-01-15T08:13:15;3.00;99.90
16867;DHT22;8550;52.596;13.320;2024-01-15T08:18:17;3.00;99.90
16867;DHT22;8550;52.596;13.320;2024-01-15T08:23:19;3.00;99.90
16867;DHT22;8550;52.596;13.320;2024-01-15T08:28:23;3.00;99.90
16867;DHT22;8550;52.596;13.320;2024-01-15T08:33:25;3.10;99.90
16867;DHT22;8550;52.596;13.320;2024-01-15T08:38:26;3.10;99.90
16867;DHT22;8550;52.596;13.320;2024-01-15T08:43:30;3.00;99.90
16867;DHT22;8550;52.596;13.320;2024-01-15T08:48:32;3.10;99.90
16867;DHT22;8550;52.596;13.320;2024-01-15T08:53:34;3.10;99.90
16867;DHT22;8550;52.596;13.320;2024-01-15T08:58:37;3.00;99.90
16867;DHT22;8550;52.596;13.320;2024-01-15T09:03:40;3.00;99.90
16867;DHT22;8550;52.596;13.320;2024-01-15T09:08:42;3.00;99.90
16867;DHT22;8550;52.596;13.320;2024-01-15T09:13:45;3.10;99.90
16867;DHT22;8550;52.596;13.320;2024-01-15T09:18:47;3.10;99.90
16867;DHT22;8550;52.596;13.320;2024-01-15T09:23:49;3.10;99.90
16867;DHT22;8550;52.596;13.320;2024-01-15T09:28:53;3.30;99.90
16867;DHT22;8550;52.596;13.320;2024-01-15T09:33:55;3.30;99.90
16867;DHT22;8550;52.596;13.320;2024-01-15T09:38:59;3.40;99.90
16867;DHT22;8550;52.596;13.320;2024-01-15T09:44:03;3.50;99.90
16867;DHT22;8550;52.596;13.320;2024-01-15T09:49:05;3.60;99.90
16867;DHT22;8550;52.596;13.320;2024-01-15T09:54:07;3.60;99.90
16867;DHT22;8550;52.596;13.320;2024-01-15T09:59:12;3.70;99.90
16867;DHT22;8550;52.596;13.320;2024-01-15T10:04:15;3.80;99.90
16867;DHT22;8550;52.596;13.320;2024-01-15T10:09:17;3.80;99.90
16867;DHT22;8550;52.596;13.320;2024-01-15T10:14:21;3.80;99.90
16867;DHT22;8550;52.596;13.320;2024-01-15T10:19:23;3.90;99.90
16867;DHT22;8550;52.596;13.320;2024-01-15T10:24:25;3.90;99.90
16867;DHT22;8550;52.596;13.320;2024-01-15T10:29:30;3.90;99.90
16867;DHT22;8550;52.596;13.320;2024-01-15T10:34:32;3.80;99.90
16867;DHT22;8550;52.596;13.320;2024-01-15T10:39:34;3.70;99.90
16867;DHT22;8550;52.596;13.320;2024-01-15T10:44:38;3.60;99.90
16867;DHT22;8550;52.596;13.320;2024-01-15T10:49:40;3.60;99.90
16867;DHT22;8550;52.596;13.320;2024-01-15T10:54:43;3.70;99.90
16867;DHT22;8550;52.596;13.320;2024-01-15T10:59:47;3.70;99.90
16867;DHT22;8550;52.596;13.320;2024-01-15T11:04:48;3.90;99.90
16867;DHT22;8550;52.596;13.320;2024-01-15T11:09:50;3.90;99.90
16867;DHT22;8550;52.596;13.320;2024-01-15T11:15:01;3.90;99.90
16867;DHT22;8550;52.596;13.320;2024-01-15T11:20:06;3.80;99.90
16867;DHT22;8550;52.596;13.320;2024-01-15T11:25:13;3.80;99.90
16867;DHT22;8550;52.596;13.320;2024-01-15T11:30:17;3.90;99.90
16867;DHT22;8550;52.596;13.320;2024-01-15T11:35:20;3.90;99.90
16867;DHT22;8550;52.596;13.320;2024-01-15T11:40:36;3.90;99.90
16867;DHT22;8550;52.596;13.320;2024-01-15T11:45:40;3.80;99.90
16867;DHT22;8550;52.596;13.320;2024-01-15T11:50:43;3.60;99.90
16867;DHT22;8550;52.596;13.320;2024-01-15T11:55:46;3.30;99.90
16867;DHT22;8550;52.596;13.320;2024-01-15T12:00:51;2.90;99.90
16867;DHT22;8550;52.596;13.320;2024-01-15T12:05:55;2.80;99.90
16867;DHT22;8550;52.596;13.320;2024-01-15T12:10:58;2.90;99.90
16867;DHT22;8550;52.596;13.320;2024-01-15T12:16:03;2.90;99.90
16867;DHT22;8550;52.596;13.320;2024-01-15T12:21:05;2.90;99.90
16867;DHT22;8550;52.596;13.320;2024-01-15T12:26:08;3.00;99.90
16867;DHT22;8550;52.596;13.320;2024-01-15T12:31:13;3.00;99.90
16867;DHT22;8550;52.596;13.320;2024-01-15T12:36:20;2.90;99.90
16867;DHT22;8550;52.596;13.320;2024-01-15T12:41:22;2.80;99.90
16867;DHT22;8550;52.596;13.320;2024-01-15T12:46:26;2.80;99.90
16867;DHT22;8550;52.596;13.320;2024-01-15T12:51:29;2.70;99.90
16867;DHT22;8550;52.596;13.320;2024-01-15T12:56:31;2.70;99.90
16867;DHT22;8550;52.596;13.320;2024-01-15T13:01:35;2.70;99.90
16867;DHT22;8550;52.596;13.320;2024-01-15T13:06:37;2.80;99.90
16867;DHT22;8550;52.596;13.320;2024-01-15T13:11:38;2.80;99.90
16867;DHT22;8550;52.596;13.320;2024-01-15T13:16:42;2.80;99.90
16867;DHT22;8550;52.596;13.320;2024-01-15T13:21:44;2.80;99.90
16867;DHT22;8550;52.596;13.320;2024-01-15T13:26:46;2.90;99.90
16867;DHT22;8550;52.596;13.320;2024-01-15T13:31:50;2.90;99.90
16867;DHT22;8550;52.596;13.320;2024-01-15T13:36:51;3.00;99.90
16867;DHT22;8550;52.596;13.320;2024-01-15T13:41:54;2.90;99.90
16867;DHT22;8550;52.596;13.320;2024-01-15T13:46:58;3.00;99.90
16867;DHT22;8550;52.596;13.320;2024-01-15T13:51:59;2.90;99.90
16867;DHT22;8550;52.596;13.320;2024-01-15T13:57:04;2.90;99.90
16867;DHT22;8550;52.596;13.320;2024-01-15T14:02:07;2.90;99.90
16867;DHT22;8550;52.596;13.320;2024-01-15T14:07:10;3.00;99.90
16867;DHT22;8550;52.596;13.320;2024-01-15T14:12:12;2.90;99.90
16867;DHT22;8550;52.596;13.320;2024-01-15T14:17:15;2.90;99.90
16867;DHT22;8550;52.596;13.320;2024-01-15T14:22:18;2.90;99.90
16867;DHT22;8550;52.596;13.320;2024-01-15T14:27:20;3.00;99.90
16867;DHT22;8550;52.596;13.320;2024-01-15T14:32:26;3.00;99.90
16867;DHT22;8550;52.596;13.320;2024-01-15T14:37:28;2.90;99.90
16867;DHT22;8550;52.596;13.320;2024-01-15T14:42:31;2.90;99.90
16867;DHT22;8550;52.596;13.320;2024-01-15T14:47:35;2.90;99.90
16867;DHT22;8550;52.596;13.320;2024-01-15T14:52:37;2.80;99.90
16867;DHT22;8550;52.596;13.320;2024-01-15T14:57:39;2.80;99.90
16867;DHT22;8550;52.596;13.320;2024-01-15T15:02:43;2.80;99.90
16867;DHT22;8550;52.596;13.320;2024-01-15T15:07:45;2.80;99.90
16867;DHT22;8550;52.596;13.320;2024-01-15T15:12:46;2.70;99.90
16867;DHT22;8550;52.596;13.320;2024-01-15T15:17:50;2.70;99.90
16867;DHT22;8550;52.596;13.320;2024-01-15T15:22:52;2.50;99.90
16867;DHT22;8550;52.596;13.320;2024-01-15T15:27:56;2.50;99.90
16867;DHT22;8550;52.596;13.320;2024-01-15T15:32:59;2.40;99.90
16867;DHT22;8550;52.596;13.320;2024-01-15T15:38:01;2.40;99.90
16867;DHT22;8550;52.596;13.320;2024-01-15T15:43:03;2.30;99.90
16867;DHT22;8550;52.596;13.320;2024-01-15T15:48:07;2.30;99.90
16867;DHT22;8550;52.596;13.320;2024-01-15T15:53:09;2.20;99.90
16867;DHT22;8550;52.596;13.320;2024-01-15T15:58:11;2.10;99.90
16867;DHT22;8550;52.596;13.320;2024-01-15T16:03:21;2.10;99.90
16867;DHT22;8550;52.596;13.320;2024-01-15T16:08:23;2.20;99.90
16867;DHT22;8550;52.596;13.320;2024-01-15T16:13:25;2.10;99.90
16867;DHT22;8550;52.596;13.320;2024-01-15T16:18:28;2.00;99.90
16867;DHT22;8550;52.596;13.320;2024-01-15T16:23:30;2.10;99.90
16867;DHT22;8550;52.596;13.320;2024-01-15T16:28:32;1.90;99.90
16867;DHT22;8550;52.596;13.320;2024-01-15T16:33:35;1.80;99.90
16867;DHT22;8550;52.596;13.320;2024-01-15T16:38:37;1.90;99.90
16867;DHT22;8550;52.596;13.320;2024-01-15T16:43:39;1.90;99.90
16867;DHT22;8550;52.596;13.320;2024-01-15T16:48:42;1.80;99.90
16867;DHT22;8550;52.596;13.320;2024-01-15T16:53:44;1.70;99.90
16867;DHT22;8550;52.596;13.320;2024-01-15T16:58:46;1.70;99.90
16867;DHT22;8550;52.596;13.320;2024-01-15T17:03:49;1.70;99.90
16867;DHT22;8550;52.596;13.320;2024-01-15T17:08:52;1.60;99.90
16867;DHT22;8550;52.596;13.320;2024-01-15T17:13:55;1.60;99.90
16867;DHT22;8550;52.596;13.320;2024-01-15T17:18:58;1.60;99.90
16867;DHT22;8550;52.596;13.320;2024-01-15T17:24:00;1.50;99.90
16867;DHT22;8550;52.596;13.320;2024-01-15T17:29:03;1.50;99.90
16867;DHT22;8550;52.596;13.320;2024-01-15T17:34:07;1.50;99.90
16867;DHT22;8550;52.596;13.320;2024-01-15T17:39:10;1.50;99.90
16867;DHT22;8550;52.596;13.320;2024-01-15T17:44:13;1.60;99.90
16867;DHT22;8550;52.596;13.320;2024-01-15T17:49:16;1.70;99.90
16867;DHT22;8550;52.596;13.320;2024-01-15T17:54:18;1.70;99.90
16867;DHT22;8550;52.596;13.320;2024-01-15T17:59:20;1.80;99.90
16867;DHT22;8550;52.596;13.320;2024-01-15T18:04:23;1.80;99.90
16867;DHT22;8550;52.596;13.320;2024-01-15T18:09:25;1.80;99.90
16867;DHT22;8550;52.596;13.320;2024-01-15T18:14:27;1.80;99.90
16867;DHT22;8550;52.596;13.320;2024-01-15T18:19:30;1.60;99.90
16867;DHT22;8550;52.596;13.320;2024-01-15T18:24:32;1.60;99.90
16867;DHT22;8550;52.596;13.320;2024-01-15T18:29:35;1.50;99.90
16867;DHT22;8550;52.596;13.320;2024-01-15T18:34:38;1.40;99.90
16867;DHT22;8550;52.596;13.320;2024-01-15T18:39:42;1.20;99.90
16867;DHT22;8550;52.596;13.320;2024-01-15T18:44:44;1.00;99.90
16867;DHT22;8550;52.596;13.320;2024-01-15T18:49:47;1.00;99.90
16867;DHT22;8550;52.596;13.320;2024-01-15T18:54:49;1.10;99.90
16867;DHT22;8550;52.596;13.320;2024-01-15T18:59:51;1.20;99.90
16867;DHT22;8550;52.596;13.320;2024-01-15T19:04:54;1.10;99.90
16867;DHT22;8550;52.596;13.320;2024-01-15T19:09:56;1.40;99.90
16867;DHT22;8550;52.596;13.320;2024-01-15T19:14:58;1.20;99.90
16867;DHT22;8550;52.596;13.320;2024-01-15T19:20:02;1.30;99.90
16867;DHT22;8550;52.596;13.320;2024-01-15T19:25:04;1.20;99.90
16867;DHT22;8550;52.596;13.320;2024-01-15T19:30:07;1.20;99.90
16867;DHT22;8550;52.596;13.320;2024-01-15T19:35:11;1.20;99.90
16867;DHT22;8550;52.596;13.320;2024-01-15T19:40:13;1.20;99.90
16867;DHT22;8550;52.596;13.320;2024-01-15T19:45:15;1.00;99.90
16867;DHT22;8550;52.596;13.320;2024-01-15T19:50:18;0.90;99.90
16867;DHT22;8550;52.596;13.320;2024-01-15T19:55:20;1.00;99.90
16867;DHT22;8550;52.596;13.320;2024-01-15T20:00:22;0.90;99.90
16867;DHT22;8550;52.596;13.320;2024-01-15T20:05:25;0.90;99.90
16867;DHT22;8550;52.596;13.320;2024-01-15T20:10:28;1.10;99.90
16867;DHT22;8550;52.596;13.320;2024-01-15T20:15:29;1.10;99.90
16867;DHT22;8550;52.596;13.320;2024-01-15T20:20:35;1.00;99.90
16867;DHT22;8550;52.596;13.320;2024-01-15T20:25:37;1.10;99.90
16867;DHT22;8550;52.596;13.320;2024-01-15T20:30:39;1.00;99.90
16867;DHT22;8550;52.596;13.320;2024-01-15T20:35:42;1.00;99.90
16867;DHT22;8550;52.596;13.320;2024-01-15T20:40:44;1.00;99.90
16867;DHT22;8550;52.596;13.320;2024-01-15T20:45:46;1.00;99.90
16867;DHT22;8550;52.596;13.320;2024-01-15T20:50:49;1.00;99.90
16867;DHT22;8550;52.596;13.320;2024-01-15T20:55:51;1.00;99.90
16867;DHT22;8550;52.596;13.320;2024-01-15T21:00:53;0.90;99.90
16867;DHT22;8550;52.596;13.320;2024-01-15T21:05:58;1.00;99.90
16867;DHT22;8550;52.596;13.320;2024-01-15T21:11:00;0.90;99.90
16867;DHT22;8550;52.596;13.320;2024-01-15T21:16:05;1.00;99.90
16867;DHT22;8550;52.596;13.320;2024-01-15T21:21:09;1.00;99.90
16867;DHT22;8550;52.596;13.320;2024-01-15T21:26:11;1.00;99.90
16867;DHT22;8550;52.596;13.320;2024-01-15T21:31:14;1.00;99.90
16867;DHT22;8550;52.596;13.320;2024-01-15T21:36:17;1.00;99.90
16867;DHT22;8550;52.596;13.320;2024-01-15T21:41:21;1.10;99.90
16867;DHT22;8550;52.596;13.320;2024-01-15T21:46:24;0.90;99.90
16867;DHT22;8550;52.596;13.320;2024-01-15T21:51:28;0.90;99.90
16867;DHT22;8550;52.596;13.320;2024-01-15T21:56:30;1.00;99.90
16867;DHT22;8550;52.596;13.320;2024-01-15T22:01:32;0.90;99.90
16867;DHT22;8550;52.596;13.320;2024-01-15T22:06:35;0.80;99.90
16867;DHT22;8550;52.596;13.320;2024-01-15T22:11:37;0.80;99.90
16867;DHT22;8550;52.596;13.320;2024-01-15T22:16:39;0.80;99.90
16867;DHT22;8550;52.596;13.320;2024-01-15T22:21:46;0.80;99.90
16867;DHT22;8550;52.596;13.320;2024-01-15T22:26:48;0.90;99.90
16867;DHT22;8550;52.596;13.320;2024-01-15T22:31:50;0.80;99.90
16867;DHT22;8550;52.596;13.320;2024-01-15T22:36:54;0.80;99.90
16867;DHT22;8550;52.596;13.320;2024-01-15T22:41:56;0.80;99.90
16867;DHT22;8550;52.596;13.320;2024-01-15T22:46:58;0.80;99.90
16867;DHT22;8550;52.596;13.320;2024-01-15T22:52:01;0.80;99.90
16867;DHT22;8550;52.596;13.320;2024-01-15T22:57:04;0.90;99.90
16867;DHT22;8550;52.596;13.320;2024-01-15T23:02:06;1.00;99.90
16867;DHT22;8550;52.596;13.320;2024-01-15T23:07:09;0.90;99.90
16867;DHT22;8550;52.596;13.320;2024-01-15T23:12:12;0.90;99.90
16867;DHT22;8550;52.596;13.320;2024-01-15T23:17:14;0.80;99.90
16867;DHT22;8550;52.596;13.320;2024-01-15T23:22:17;0.90;99.90
16867;DHT22;8550;52.596;13.320;2024-01-15T23:27:19;1.00;99.90
16867;DHT22;8550;52.596;13.320;2024-01-15T23:32:21;1.00;99.90
16867;DHT22;8550;52.596;13.320;2024-01-15T23:37:24;1.00;99.90
16867;DHT22;8550;52.596;13.320;2024-01-15T23:42:26;0.90;99.90
16867;DHT22;8550;52.596;13.320;2024-01-15T23:47:28;1.00;99.90
16867;DHT22;8550;52.596;13.320;2024-01-15T23:52:32;1.10;99.90
16867;DHT22;8550;52.596;13.320;2024-01-15T23:57:34;1.10;99.90
